Depesze METAR lotnisk w Polsce

EPWA EPMO EPKK EPLL EPWR EPKT EPGD EPPO EPRZ EPSC EPLB EPBY EPZG EPSY EPCE EPDA EPDE EPIR EPKS EPLK EPLY EPMB EPMI EPMM EPNA EPOK EPPR EPPW EPRA EPSN EPTM

METAR – format kodowanego raportu o pogodzie używany w meteorologii lotniczej i prognozie pogody. METAR jest akronimem od ang. Meteorological Aerodrome Report. Typowy METAR zawiera informację o temperaturze, ciśnieniu, temperaturze punktu rosy, sile i kierunku wiatru, opadzie, pokrywie chmur, wysokości podstawy chmur, widzialności, lecz może zawierać też inne informacje (np. stan dróg startowych).

Warszawa-Okęcie (EPWA)

METAR = EPWA 310230Z 14003KT CAVOK 15/13 Q1008 NOSIG

STACJA........... EPWA - Warszawa-Okęcie (WAW)
POMIAR........... Sat Jul 31, 04:30 CEST
WIATR............ południowo wschodni (SE) z prędkością 6 km/h
WIDZIALNOŚĆ...... powyżej 10 kilometrów
CHMURY........... bezchmurne niebo
TEMPERATURA...... 15°C
T.PUNKTU ROSY.... 13°C
WILGOTNOŚĆ....... 88%
CIŚNIENIE........ 1008 hPa
CIŚN.BEZWZGL..... 995 hPa
PROGNOZA......... bez nagłych zmian w ciągu 2h

Sprawdź też: Prognoza pogody Warszawa


Warszawa-Modlin (EPMO)

METAR = EPMO 310230Z VRB02KT CAVOK 15/13 Q1007 =

STACJA........... EPMO - Warszawa-Modlin (WMI)
POMIAR........... Sat Jul 31, 04:30 CEST
WIATR............ zmienny z prędkością 4 km/h
WIDZIALNOŚĆ...... powyżej 10 kilometrów
CHMURY........... bezchmurne niebo
TEMPERATURA...... 15°C
T.PUNKTU ROSY.... 13°C
WILGOTNOŚĆ....... 88%
CIŚNIENIE........ 1007 hPa
CIŚN.BEZWZGL..... 995 hPa

Sprawdź też: Prognoza pogody Nowy Dwór Mazowiecki


Kraków-Balice (EPKK)

METAR = EPKK 310230Z 05003KT CAVOK 15/15 Q1008

STACJA........... EPKK - Kraków-Balice (KRK)
POMIAR........... Sat Jul 31, 04:30 CEST
WIATR............ północno-wschodni (NE) z prędkością 6 km/h
WIDZIALNOŚĆ...... powyżej 10 kilometrów
CHMURY........... bezchmurne niebo
TEMPERATURA...... 15°C
T.PUNKTU ROSY.... 15°C
WILGOTNOŚĆ....... 100%
CIŚNIENIE........ 1008 hPa
CIŚN.BEZWZGL..... 980 hPa

Sprawdź też: Prognoza pogody Kraków


Łódź-Lublinek (EPLL)

METAR = EPLL 310230Z 07001KT CAVOK 14/13 Q1007

STACJA........... EPLL - Łódź-Lublinek (LCJ)
POMIAR........... Sat Jul 31, 04:30 CEST
WIATR............ wschodni północno-wschodni (ENE) z prędkością 2 km/h
WIDZIALNOŚĆ...... powyżej 10 kilometrów
CHMURY........... bezchmurne niebo
TEMPERATURA...... 14°C
T.PUNKTU ROSY.... 13°C
WILGOTNOŚĆ....... 94%
CIŚNIENIE........ 1007 hPa
CIŚN.BEZWZGL..... 985 hPa

Sprawdź też: Prognoza pogody Łódź


Wrocław-Strachowice (EPWR)

METAR = EPWR 310230Z VRB02KT CAVOK 15/13 Q1006

STACJA........... EPWR - Wrocław-Strachowice (WRO)
POMIAR........... Sat Jul 31, 04:30 CEST
WIATR............ zmienny z prędkością 4 km/h
WIDZIALNOŚĆ...... powyżej 10 kilometrów
CHMURY........... bezchmurne niebo
TEMPERATURA...... 15°C
T.PUNKTU ROSY.... 13°C
WILGOTNOŚĆ....... 88%
CIŚNIENIE........ 1006 hPa
CIŚN.BEZWZGL..... 991 hPa

Sprawdź też: Prognoza pogody Wrocław


Katowice-Pyrzowice (EPKT)

METAR = EPKT 310230Z VRB01KT CAVOK 17/14 Q1008

STACJA........... EPKT - Katowice-Pyrzowice (KTW)
POMIAR........... Sat Jul 31, 04:30 CEST
WIATR............ zmienny z prędkością 2 km/h
WIDZIALNOŚĆ...... powyżej 10 kilometrów
CHMURY........... bezchmurne niebo
TEMPERATURA...... 17°C
T.PUNKTU ROSY.... 14°C
WILGOTNOŚĆ....... 83%
CIŚNIENIE........ 1008 hPa
CIŚN.BEZWZGL..... 973 hPa

Sprawdź też: Prognoza pogody Katowice


Gdańsk (EPGD)

METAR = EPGD 310230Z VRB01KT CAVOK 13/10 Q1005

STACJA........... EPGD - Gdańsk im. Lecha Wałęsy (GDN)
POMIAR........... Sat Jul 31, 04:30 CEST
WIATR............ zmienny z prędkością 2 km/h
WIDZIALNOŚĆ...... powyżej 10 kilometrów
CHMURY........... bezchmurne niebo
TEMPERATURA...... 13°C
T.PUNKTU ROSY.... 10°C
WILGOTNOŚĆ....... 82%
CIŚNIENIE........ 1005 hPa
CIŚN.BEZWZGL..... 987 hPa

Sprawdź też: Prognoza pogody Gdańsk


Poznań-Ławica (EPPO)

METAR = EPPO 310230Z 14004KT CAVOK 16/12 Q1006

STACJA........... EPPO - Poznań-Ławica (POZ)
POMIAR........... Sat Jul 31, 04:30 CEST
WIATR............ południowo wschodni (SE) z prędkością 7 km/h
WIDZIALNOŚĆ...... powyżej 10 kilometrów
CHMURY........... bezchmurne niebo
TEMPERATURA...... 16°C
T.PUNKTU ROSY.... 12°C
WILGOTNOŚĆ....... 77%
CIŚNIENIE........ 1006 hPa
CIŚN.BEZWZGL..... 995 hPa

Sprawdź też: Prognoza pogody Poznań


Rzeszów-Jasionka (EPRZ)

METAR = EPRZ 310230Z 20002KT CAVOK 17/17 Q1009

STACJA........... EPRZ - Rzeszów-Jasionka (RZE)
POMIAR........... Sat Jul 31, 04:30 CEST
WIATR............ południowo południowo-zachodni  (SSW) z prędkością 4 km/h
WIDZIALNOŚĆ...... powyżej 10 kilometrów
CHMURY........... bezchmurne niebo
TEMPERATURA...... 17°C
T.PUNKTU ROSY.... 17°C
WILGOTNOŚĆ....... 100%
CIŚNIENIE........ 1009 hPa
CIŚN.BEZWZGL..... 984 hPa

Sprawdź też: Prognoza pogody Rzeszów


Szczecin-Goleniów (EPSC)

METAR = EPSC 310230Z 14007KT CAVOK 16/11 Q1004

STACJA........... EPSC - Szczecin-Goleniów (SZZ)
POMIAR........... Sat Jul 31, 04:30 CEST
WIATR............ południowo wschodni (SE) z prędkością 13 km/h
WIDZIALNOŚĆ...... powyżej 10 kilometrów
CHMURY........... bezchmurne niebo
TEMPERATURA...... 16°C
T.PUNKTU ROSY.... 11°C
WILGOTNOŚĆ....... 72%
CIŚNIENIE........ 1004 hPa
CIŚN.BEZWZGL..... 998 hPa

Sprawdź też: Prognoza pogody Szczecin


Lublin-Świdnik (EPLB)

METAR = EPLB 310230Z 07001KT CAVOK 14/13 Q1008 =

STACJA........... EPLB - Lublin-Świdnik (LUZ)
POMIAR........... Sat Jul 31, 04:30 CEST
WIATR............ wschodni północno-wschodni (ENE) z prędkością 2 km/h
WIDZIALNOŚĆ...... powyżej 10 kilometrów
CHMURY........... bezchmurne niebo
TEMPERATURA...... 14°C
T.PUNKTU ROSY.... 13°C
WILGOTNOŚĆ....... 94%
CIŚNIENIE........ 1008 hPa
CIŚN.BEZWZGL..... 984 hPa

Sprawdź też: Prognoza pogody Lublin


Bydgoszcz-Szwederowo (EPBY)

METAR = EPBY 310230Z VRB01KT CAVOK 12/09 Q1006=

STACJA........... EPBY - Bydgoszcz-Szwederowo (BZG)
POMIAR........... Sat Jul 31, 04:30 CEST
WIATR............ zmienny z prędkością 2 km/h
WIDZIALNOŚĆ...... powyżej 10 kilometrów
CHMURY........... bezchmurne niebo
TEMPERATURA...... 12°C
T.PUNKTU ROSY.... 9°C
WILGOTNOŚĆ....... 82%
CIŚNIENIE........ 1006 hPa
CIŚN.BEZWZGL..... 997 hPa

Sprawdź też: Prognoza pogody Bydgoszcz


Zielona Góra-Babimost (EPZG)

METAR = EPZG 310230Z NIL=

STACJA........... EPZG - Zielona Góra-Babimost (IEG)
POMIAR........... Sat Jul 31, 04:30 CEST
DEPESZA.......... brak aktualnej prognozy w treści depeszy

Sprawdź też: Prognoza pogody Zielona Góra


Szymany Olsztyn-Mazury (EPSY)

METAR = EPSY 310230Z VRB01KT CAVOK 09/09 Q1007=

STACJA........... EPSY - Olsztyn-Mazury (SZY)
POMIAR........... Sat Jul 31, 04:30 CEST
WIATR............ zmienny z prędkością 2 km/h
WIDZIALNOŚĆ...... powyżej 10 kilometrów
CHMURY........... bezchmurne niebo
TEMPERATURA...... 9°C
T.PUNKTU ROSY.... 9°C
WILGOTNOŚĆ....... 100%
CIŚNIENIE........ 1007 hPa
CIŚN.BEZWZGL..... 990 hPa

Sprawdź też: Prognoza pogody Olsztyn


Cewice (EPCE)

METAR = EPCE 310230Z VRB02KT 9999 FEW099 09/08 Q1005 RMK 087 096 1/1=

STACJA........... EPCE - Cewice
POMIAR........... Sat Jul 31, 04:30 CEST
WIATR............ zmienny z prędkością 4 km/h
WIDZIALNOŚĆ...... powyżej 10 kilometrów
CHMURY........... zachmurzenie niewielkie (1/8-2/8)
TEMPERATURA...... 9°C
T.PUNKTU ROSY.... 8°C
WILGOTNOŚĆ....... 94%
CIŚNIENIE........ 1005 hPa
CIŚN.BEZWZGL..... 987 hPa

Darłowo (EPDA)

METAR = EPDA 310230Z 16004KT 9999 FEW118 12/09 Q1004 RMK 120 085 2/2=

STACJA........... EPDA - Darłowo
POMIAR........... Sat Jul 31, 04:30 CEST
WIATR............ południowo południowo-wschodni (SSE) z prędkością 7 km/h
WIDZIALNOŚĆ...... powyżej 10 kilometrów
CHMURY........... zachmurzenie niewielkie (1/8-2/8)
TEMPERATURA...... 12°C
T.PUNKTU ROSY.... 9°C
WILGOTNOŚĆ....... 82%
CIŚNIENIE........ 1004 hPa
CIŚN.BEZWZGL..... 1004 hPa

Dęblin (EPDE)

METAR = EPDE 310230Z VRB02KT CAVOK 13/12 Q1008 RMK 125 094 0/0=

STACJA........... EPDE - Dęblin
POMIAR........... Sat Jul 31, 04:30 CEST
WIATR............ zmienny z prędkością 4 km/h
WIDZIALNOŚĆ...... powyżej 10 kilometrów
CHMURY........... bezchmurne niebo
TEMPERATURA...... 13°C
T.PUNKTU ROSY.... 12°C
WILGOTNOŚĆ....... 94%
CIŚNIENIE........ 1008 hPa
CIŚN.BEZWZGL..... 994 hPa

Inowrocław-Latkowo (EPIR)

METAR = EPIR 310230Z AUTO 14006KT 14/11 Q1006 RMK 144 081 ///=

STACJA........... EPIR - Inowrocław-Latkowo
POMIAR........... Sat Jul 31, 04:30 CEST
WIATR............ południowo wschodni (SE) z prędkością 11 km/h
TEMPERATURA...... 14°C
T.PUNKTU ROSY.... 11°C
WILGOTNOŚĆ....... 82%
CIŚNIENIE........ 1006 hPa
CIŚN.BEZWZGL..... 996 hPa

Poznań-Krzesiny (EPKS)

METAR = EPKS 310230Z AUTO 12003KT 9999 NCD 15/12 Q1006 RMK 146 085 ///=

STACJA........... EPKS - Poznań-Krzesiny
POMIAR........... Sat Jul 31, 04:30 CEST
WIATR............ wschodni południowo-wschodni (ESE) z prędkością 6 km/h
WIDZIALNOŚĆ...... powyżej 10 kilometrów

Łask (EPLK)

METAR = EPLK 310230Z 10004KT CAVOK 14/12 Q1007 RMK 143 086 0/0=

STACJA........... EPLK - Łask
POMIAR........... Sat Jul 31, 04:30 CEST
WIATR............ wschodni (E) z prędkością 7 km/h
WIDZIALNOŚĆ...... powyżej 10 kilometrów
CHMURY........... bezchmurne niebo
TEMPERATURA...... 14°C
T.PUNKTU ROSY.... 12°C
WILGOTNOŚĆ....... 88%
CIŚNIENIE........ 1007 hPa
CIŚN.BEZWZGL..... 984 hPa

Łęczyca (EPLY)

METAR = EPLY 310230Z AUTO 11002KT 15/11 Q1007 RMK 154 077 ///=

STACJA........... EPLY - Łęczyca
POMIAR........... Sat Jul 31, 04:30 CEST
WIATR............ wschodni południowo-wschodni (ESE) z prędkością 4 km/h
TEMPERATURA...... 15°C
T.PUNKTU ROSY.... 11°C
WILGOTNOŚĆ....... 77%
CIŚNIENIE........ 1007 hPa
CIŚN.BEZWZGL..... 993 hPa

Malbork (EPMB)

METAR = EPMB 310230Z VRB02KT CAVOK 11/11 Q1005 RMK 113 080 2/2=

STACJA........... EPMB - Malbork
POMIAR........... Sat Jul 31, 04:30 CEST
WIATR............ zmienny z prędkością 4 km/h
WIDZIALNOŚĆ...... powyżej 10 kilometrów
CHMURY........... bezchmurne niebo
TEMPERATURA...... 11°C
T.PUNKTU ROSY.... 11°C
WILGOTNOŚĆ....... 100%
CIŚNIENIE........ 1005 hPa
CIŚN.BEZWZGL..... 1004 hPa

Mirosławiec (EPMI)

METAR = EPMI 310230Z NIL=

STACJA........... EPMI - Mirosławiec
POMIAR........... Sat Jul 31, 04:30 CEST
DEPESZA.......... brak aktualnej prognozy w treści depeszy

Mińsk Mazowiecki (EPMM)

METAR = EPMM 310230Z VRB01KT CAVOK 13/13 Q1008 RMK 126 100 2/2=

STACJA........... EPMM - Mińsk Mazowiecki
POMIAR........... Sat Jul 31, 04:30 CEST
WIATR............ zmienny z prędkością 2 km/h
WIDZIALNOŚĆ...... powyżej 10 kilometrów
CHMURY........... bezchmurne niebo
TEMPERATURA...... 13°C
T.PUNKTU ROSY.... 13°C
WILGOTNOŚĆ....... 100%
CIŚNIENIE........ 1008 hPa
CIŚN.BEZWZGL..... 986 hPa

Nadarzyce (EPNA)

METAR = EPNA 310230Z NIL=

STACJA........... EPNA - Nadarzyce
POMIAR........... Sat Jul 31, 04:30 CEST
DEPESZA.......... brak aktualnej prognozy w treści depeszy

Gdynia-Kosakowo (EPOK)

METAR = EPOK 310230Z 22006KT 9999 FEW124 15/12 Q1004 RMK 150 080 2/2=

STACJA........... EPOK - Gdynia-Kosakowo
POMIAR........... Sat Jul 31, 04:30 CEST
WIATR............ południowo-zachodni (SW) z prędkością 11 km/h
WIDZIALNOŚĆ...... powyżej 10 kilometrów
CHMURY........... zachmurzenie niewielkie (1/8-2/8)
TEMPERATURA...... 15°C
T.PUNKTU ROSY.... 12°C
WILGOTNOŚĆ....... 82%
CIŚNIENIE........ 1004 hPa
CIŚN.BEZWZGL..... 999 hPa

Pruszcz Gdański (EPPR)

METAR = EPPR 310230Z AUTO 00000KT 11/08 Q1005 RMK 109 084 ///=

STACJA........... EPPR - Pruszcz Gdański
POMIAR........... Sat Jul 31, 04:30 CEST
WIATR............ bezwietrznie
TEMPERATURA...... 11°C
T.PUNKTU ROSY.... 8°C
WILGOTNOŚĆ....... 82%
CIŚNIENIE........ 1005 hPa
CIŚN.BEZWZGL..... 1005 hPa

Powidz (EPPW)

METAR = EPPW 310230Z 16006KT CAVOK 16/11 Q1006 RMK 156 075 4/4 =

STACJA........... EPPW - Powidz
POMIAR........... Sat Jul 31, 04:30 CEST
WIATR............ południowo południowo-wschodni (SSE) z prędkością 11 km/h
WIDZIALNOŚĆ...... powyżej 10 kilometrów
CHMURY........... bezchmurne niebo
TEMPERATURA...... 16°C
T.PUNKTU ROSY.... 11°C
WILGOTNOŚĆ....... 72%
CIŚNIENIE........ 1006 hPa
CIŚN.BEZWZGL..... 993 hPa

Radom-Sadków (EPRA)

METAR = EPRA 310230Z AUTO 00000KT 0000 15/12 Q1008 RMK 154 082 ///=

STACJA........... EPRA - Radom-Sadków
POMIAR........... Sat Jul 31, 04:30 CEST
WIATR............ bezwietrznie
WIDZIALNOŚĆ...... 0000 metr
TEMPERATURA...... 15°C
T.PUNKTU ROSY.... 12°C
WILGOTNOŚĆ....... 82%
CIŚNIENIE........ 1008 hPa
CIŚN.BEZWZGL..... 986 hPa

Świdwin (EPSN)

METAR = EPSN 310230Z NIL=

STACJA........... EPSN - Świdwin
POMIAR........... Sat Jul 31, 04:30 CEST
DEPESZA.......... brak aktualnej prognozy w treści depeszy

Tomaszów Mazowiecki (EPTM)

METAR = EPTM 310230Z NIL=

STACJA........... EPTM - Tomaszów Mazowiecki
POMIAR........... Sat Jul 31, 04:30 CEST
DEPESZA.......... brak aktualnej prognozy w treści depeszy